createdAt,value
2018-02-20T00:00:14.761Z,-2.10
2018-02-20T00:02:42.278Z,-2.30
2018-02-20T00:05:09.791Z,-2.30
2018-02-20T00:07:37.262Z,-2.20
2018-02-20T00:10:05.490Z,-2.00
2018-02-20T00:12:33.002Z,-2.00
2018-02-20T00:15:00.490Z,-2.10
2018-02-20T00:17:28.012Z,-2.10
2018-02-20T00:19:55.476Z,-2.10
2018-02-20T00:22:22.981Z,-2.40
2018-02-20T00:24:50.440Z,-2.50
2018-02-20T00:27:17.958Z,-2.40
2018-02-20T00:29:45.422Z,-2.40
2018-02-20T00:32:13.664Z,-2.40
2018-02-20T00:34:41.191Z,-2.40
2018-02-20T00:37:08.682Z,-2.30
2018-02-20T00:39:36.183Z,-2.30
2018-02-20T00:42:04.419Z,-2.20
2018-02-20T00:44:31.930Z,-2.20
2018-02-20T00:46:59.390Z,-2.20
2018-02-20T00:49:26.892Z,-2.20
2018-02-20T00:51:54.353Z,-2.20
2018-02-20T00:54:21.870Z,-2.30
2018-02-20T00:56:49.350Z,-2.30
2018-02-20T00:59:16.811Z,-2.40
2018-02-20T01:01:44.300Z,-2.30
2018-02-20T01:04:12.397Z,-2.20
2018-02-20T01:06:40.651Z,-2.20
2018-02-20T01:09:08.120Z,-2.20
2018-02-20T01:11:36.387Z,-2.20
2018-02-20T01:14:03.855Z,-2.20
2018-02-20T01:16:32.139Z,-2.30
2018-02-20T01:19:00.371Z,-2.30
2018-02-20T01:21:27.905Z,-2.30
2018-02-20T01:23:55.399Z,-2.40
2018-02-20T01:26:22.890Z,-2.50
2018-02-20T01:28:51.151Z,-2.30
2018-02-20T01:31:18.610Z,-2.30
2018-02-20T01:33:46.117Z,-2.30
2018-02-20T01:36:13.582Z,-2.20
2018-02-20T01:38:41.207Z,-2.20
2018-02-20T01:41:09.446Z,-2.20
2018-02-20T01:43:36.969Z,-2.20
2018-02-20T01:46:04.451Z,-2.40
2018-02-20T01:48:31.950Z,-2.40
2018-02-20T01:51:08.442Z,-2.40
2018-02-20T01:53:35.915Z,-2.30
2018-02-20T01:56:03.432Z,-2.30
2018-02-20T01:58:30.903Z,-2.20
2018-02-20T02:00:59.157Z,-2.30
2018-02-20T02:03:26.660Z,-2.40
2018-02-20T02:05:54.148Z,-2.40
2018-02-20T02:08:21.654Z,-2.30
2018-02-20T02:10:49.887Z,-2.30
2018-02-20T02:13:17.394Z,-2.30
2018-02-20T02:15:45.630Z,-2.30
2018-02-20T02:18:13.130Z,-2.30
2018-02-20T02:20:41.378Z,-2.30
2018-02-20T02:23:08.847Z,-2.30
2018-02-20T02:25:36.355Z,-2.20
2018-02-20T02:28:03.829Z,-2.20
2018-02-20T02:30:31.333Z,-2.30
2018-02-20T02:32:59.588Z,-2.40
2018-02-20T02:35:27.074Z,-2.40
2018-02-20T02:37:55.323Z,-2.30
2018-02-20T02:40:22.835Z,-2.30
2018-02-20T02:42:50.334Z,-2.20
2018-02-20T02:45:17.844Z,-2.20
2018-02-20T02:47:45.339Z,-2.20
2018-02-20T02:50:12.826Z,-2.20
2018-02-20T02:52:40.351Z,-2.40
2018-02-20T02:55:07.845Z,-2.30
2018-02-20T02:57:35.348Z,-2.40
2018-02-20T03:00:02.816Z,-2.30
2018-02-20T03:02:30.342Z,-2.40
2018-02-20T03:04:58.567Z,-2.50
2018-02-20T03:07:26.034Z,-2.50
2018-02-20T03:09:53.538Z,-2.40
2018-02-20T03:12:21.802Z,-2.30
2018-02-20T03:14:50.066Z,-2.40
2018-02-20T03:17:17.525Z,-2.40
2018-02-20T03:19:45.038Z,-2.30
2018-02-20T03:22:12.503Z,-2.40
2018-02-20T03:24:40.008Z,-2.50
2018-02-20T03:27:07.491Z,-2.50
2018-02-20T03:29:35.714Z,-2.50
2018-02-20T03:32:03.242Z,-2.50
2018-02-20T03:34:30.730Z,-2.50
2018-02-20T03:36:58.239Z,-2.60
2018-02-20T03:39:26.471Z,-2.70
2018-02-20T03:41:53.982Z,-2.70
2018-02-20T03:44:21.455Z,-2.60
2018-02-20T03:46:48.971Z,-2.60
2018-02-20T03:49:16.444Z,-2.60
2018-02-20T03:51:44.674Z,-2.70
2018-02-20T03:54:12.168Z,-2.70
2018-02-20T03:56:39.658Z,-2.60
2018-02-20T03:59:07.159Z,-2.50
2018-02-20T04:01:34.622Z,-2.60
2018-02-20T04:04:02.121Z,-2.60
2018-02-20T04:06:30.367Z,-2.70
2018-02-20T04:08:57.886Z,-2.70
2018-02-20T04:11:25.382Z,-2.50
2018-02-20T04:13:52.859Z,-2.50
2018-02-20T04:16:20.355Z,-2.60
2018-02-20T04:18:47.830Z,-2.50
2018-02-20T04:21:15.323Z,-2.60
2018-02-20T04:23:42.800Z,-2.50
2018-02-20T04:26:11.082Z,-2.60
2018-02-20T04:28:39.351Z,-2.70
2018-02-20T04:31:07.611Z,-2.60
2018-02-20T04:33:35.085Z,-2.60
2018-02-20T04:36:03.358Z,-2.50
2018-02-20T04:38:30.881Z,-2.50
2018-02-20T04:40:58.779Z,-2.40
2018-02-20T04:43:26.299Z,-2.40
2018-02-20T04:45:53.787Z,-2.40
2018-02-20T04:48:21.293Z,-2.40
2018-02-20T04:50:48.747Z,-2.40
2018-02-20T04:53:16.243Z,-2.40
2018-02-20T04:55:43.735Z,-2.50
2018-02-20T04:58:11.251Z,-2.60
2018-02-20T05:00:38.741Z,-2.60
2018-02-20T05:03:06.214Z,-2.60
2018-02-20T05:05:34.480Z,-2.50
2018-02-20T05:08:01.956Z,-2.50
2018-02-20T05:10:30.220Z,-2.60
2018-02-20T05:12:57.702Z,-2.60
2018-02-20T05:15:25.962Z,-2.40
2018-02-20T05:17:54.216Z,-2.40
2018-02-20T05:20:23.239Z,-2.50
2018-02-20T05:22:51.498Z,-2.60
2018-02-20T05:25:18.964Z,-2.50
2018-02-20T05:27:46.484Z,-2.50
2018-02-20T05:30:13.971Z,-2.40
2018-02-20T05:32:41.477Z,-2.30
2018-02-20T05:35:08.953Z,-2.40
2018-02-20T05:37:36.467Z,-2.40
2018-02-20T05:40:04.711Z,-2.50
2018-02-20T05:42:32.231Z,-2.50
2018-02-20T05:44:59.710Z,-2.50
2018-02-20T05:47:27.182Z,-2.50
2018-02-20T05:49:54.678Z,-2.40
2018-02-20T05:52:22.916Z,-2.30
2018-02-20T05:54:50.431Z,-2.30
2018-02-20T05:57:18.658Z,-2.50
2018-02-20T05:59:46.164Z,-2.50
2018-02-20T06:02:13.641Z,-2.50
2018-02-20T06:04:41.141Z,-2.40
2018-02-20T06:07:08.618Z,-2.40
2018-02-20T06:09:37.133Z,-2.30
2018-02-20T06:12:05.371Z,-2.00
2018-02-20T06:14:32.866Z,-2.00
2018-02-20T06:17:00.383Z,-2.00
2018-02-20T06:19:28.016Z,-1.80
2018-02-20T06:21:55.540Z,-1.90
2018-02-20T06:24:23.020Z,-2.00
2018-02-20T06:26:50.535Z,-2.00
2018-02-20T06:29:18.018Z,-2.10
2018-02-20T06:31:45.535Z,-2.10
2018-02-20T06:34:13.012Z,-2.00
2018-02-20T06:36:40.522Z,-2.00
2018-02-20T06:39:08.016Z,-1.80
2018-02-20T06:41:35.495Z,-1.70
2018-02-20T06:44:03.031Z,-1.60
2018-02-20T06:46:30.503Z,-1.60
2018-02-20T06:48:58.024Z,-1.60
2018-02-20T06:51:25.508Z,-1.60
2018-02-20T06:53:53.015Z,-1.60
2018-02-20T06:56:20.489Z,-1.70
2018-02-20T06:58:47.995Z,-1.90
2018-02-20T07:01:15.531Z,-2.20
2018-02-20T07:03:43.020Z,-2.40
2018-02-20T07:06:11.319Z,-2.10
2018-02-20T07:08:38.802Z,-2.10
2018-02-20T07:11:06.340Z,-1.90
2018-02-20T07:13:33.832Z,-1.90
2018-02-20T07:16:01.381Z,-1.60
2018-02-20T07:18:28.859Z,-1.70
2018-02-20T07:20:56.339Z,-2.00
2018-02-20T07:23:23.854Z,-2.10
2018-02-20T07:25:51.332Z,-2.30
2018-02-20T07:28:18.956Z,-2.40
2018-02-20T07:30:46.439Z,-2.30
2018-02-20T07:33:13.951Z,-2.20
2018-02-20T07:35:42.200Z,-2.30
2018-02-20T07:38:09.731Z,-2.30
2018-02-20T07:40:37.259Z,-2.20
2018-02-20T07:43:05.510Z,-2.10
2018-02-20T07:45:33.003Z,-2.10
2018-02-20T07:48:00.502Z,-2.10
2018-02-20T07:50:28.024Z,-2.20
2018-02-20T07:52:55.502Z,-2.20
2018-02-20T07:55:23.006Z,-2.00
2018-02-20T07:57:50.511Z,-2.10
2018-02-20T08:00:17.999Z,-2.10
2018-02-20T08:02:47.147Z,-2.10
2018-02-20T08:05:14.637Z,-2.10
2018-02-20T08:07:42.165Z,-2.10
2018-02-20T08:10:10.411Z,-2.10
2018-02-20T08:12:37.931Z,-2.10
2018-02-20T08:15:05.430Z,-2.10
2018-02-20T08:17:32.911Z,-2.10
2018-02-20T08:20:01.169Z,-2.00
2018-02-20T08:22:29.444Z,-1.90
2018-02-20T08:24:56.944Z,-1.90
2018-02-20T08:27:24.410Z,-1.80
2018-02-20T08:29:51.926Z,-1.60
2018-02-20T08:32:19.395Z,-1.50
2018-02-20T08:34:47.664Z,-1.50
2018-02-20T08:37:15.139Z,-1.50
2018-02-20T08:39:42.664Z,-1.40
2018-02-20T08:42:10.123Z,-1.20
2018-02-20T08:44:37.600Z,-1.40
2018-02-20T08:47:05.881Z,-1.50
2018-02-20T08:49:34.118Z,-1.50
2018-02-20T08:52:01.612Z,-1.60
2018-02-20T08:54:29.126Z,-1.60
2018-02-20T08:56:57.584Z,-1.60
2018-02-20T08:59:25.076Z,-1.70
2018-02-20T09:01:52.578Z,-1.70
2018-02-20T09:04:20.822Z,-1.70
2018-02-20T09:06:48.322Z,-1.70
2018-02-20T09:09:16.576Z,-1.70
2018-02-20T09:11:44.048Z,-1.70
2018-02-20T09:14:12.318Z,-1.70
2018-02-20T09:16:39.822Z,-1.70
2018-02-20T09:19:07.350Z,-1.60
2018-02-20T09:21:35.587Z,-1.30
2018-02-20T09:24:03.111Z,-1.30
2018-02-20T09:26:30.583Z,-1.30
2018-02-20T09:28:58.103Z,-1.30
2018-02-20T09:31:26.360Z,-1.40
2018-02-20T09:33:53.865Z,-1.40
2018-02-20T09:36:21.340Z,-1.30
2018-02-20T09:38:48.845Z,-1.30
2018-02-20T09:41:17.082Z,-1.30
2018-02-20T09:43:44.578Z,-1.30
2018-02-20T09:46:12.851Z,-1.00
2018-02-20T09:48:40.332Z,-1.10
2018-02-20T09:51:07.823Z,-1.10
2018-02-20T09:53:35.299Z,-1.10
2018-02-20T09:56:02.766Z,-1.00
2018-02-20T09:58:30.298Z,-1.30
2018-02-20T10:00:57.792Z,-1.20
2018-02-20T10:03:25.274Z,-1.20
2018-02-20T10:05:53.562Z,-1.20
2018-02-20T10:08:21.841Z,-1.40
2018-02-20T10:10:49.351Z,-1.40
2018-02-20T10:13:16.871Z,-1.40
2018-02-20T10:15:44.350Z,-1.40
2018-02-20T10:18:11.847Z,-1.30
2018-02-20T10:20:39.358Z,-1.30
2018-02-20T10:23:06.827Z,-1.30
2018-02-20T10:25:34.339Z,-1.20
2018-02-20T10:28:02.572Z,-1.20
2018-02-20T10:30:30.083Z,-1.20
2018-02-20T10:32:58.307Z,-1.30
2018-02-20T10:35:25.801Z,-1.30
2018-02-20T10:37:54.031Z,-1.20
2018-02-20T10:40:21.531Z,-1.20
2018-02-20T10:42:49.056Z,-1.10
2018-02-20T10:45:16.554Z,-1.10
2018-02-20T10:47:44.814Z,-1.00
2018-02-20T10:50:12.298Z,-1.00
2018-02-20T10:52:40.557Z,-1.10
2018-02-20T10:55:08.056Z,-1.10
2018-02-20T10:57:35.545Z,-1.30
2018-02-20T11:00:03.041Z,-1.40
2018-02-20T11:02:31.313Z,-1.20
2018-02-20T11:04:59.584Z,-1.30
2018-02-20T11:07:27.090Z,-1.30
2018-02-20T11:09:54.600Z,-1.20
2018-02-20T11:12:22.071Z,-1.10
2018-02-20T11:14:50.343Z,-1.10
2018-02-20T11:17:17.807Z,-1.10
2018-02-20T11:19:46.086Z,-1.20
2018-02-20T11:22:14.360Z,-1.10
2018-02-20T11:24:42.610Z,-1.10
2018-02-20T11:27:10.112Z,-1.10
2018-02-20T11:29:37.631Z,-1.10
2018-02-20T11:32:05.123Z,-1.10
2018-02-20T11:34:33.408Z,-1.00
2018-02-20T11:37:01.655Z,-0.90
2018-02-20T11:39:29.152Z,-0.90
2018-02-20T11:41:56.631Z,-0.90
2018-02-20T11:44:24.122Z,-0.90
2018-02-20T11:46:51.589Z,-0.90
2018-02-20T11:49:19.080Z,-0.90
2018-02-20T11:51:47.164Z,-0.80
2018-02-20T11:54:15.418Z,-0.70
2018-02-20T11:56:43.692Z,-0.70
2018-02-20T11:59:11.921Z,-0.70
2018-02-20T12:01:39.432Z,-0.70
2018-02-20T12:04:07.670Z,-0.70
2018-02-20T12:06:35.188Z,-0.70
2018-02-20T12:09:02.721Z,-0.70
2018-02-20T12:11:30.983Z,-0.60
2018-02-20T12:13:58.544Z,-0.70
2018-02-20T12:16:26.028Z,-0.70
2018-02-20T12:18:54.274Z,-0.60
2018-02-20T12:21:21.803Z,-0.60
2018-02-20T12:23:49.330Z,-0.60
2018-02-20T12:26:16.858Z,-0.70
2018-02-20T12:28:44.341Z,-0.60
2018-02-20T12:31:12.591Z,-0.80
2018-02-20T12:33:40.114Z,-0.80
2018-02-20T12:36:07.628Z,-0.80
2018-02-20T12:38:35.873Z,-0.80
2018-02-20T12:41:03.376Z,-0.80
2018-02-20T12:43:31.645Z,-0.80
2018-02-20T12:45:59.126Z,-0.80
2018-02-20T12:48:26.619Z,-0.70
2018-02-20T12:50:54.157Z,-0.70
2018-02-20T12:53:21.635Z,-0.60
2018-02-20T12:55:49.135Z,-0.60
2018-02-20T12:58:17.371Z,-0.60
2018-02-20T13:00:45.002Z,-0.70
2018-02-20T13:03:12.488Z,-0.80
2018-02-20T13:05:39.962Z,-0.80
2018-02-20T13:08:08.231Z,-0.80
2018-02-20T13:10:35.732Z,-0.90
2018-02-20T13:13:03.254Z,-0.70
2018-02-20T13:15:30.735Z,-0.80
2018-02-20T13:17:59.760Z,-1.00
2018-02-20T13:20:27.270Z,-1.00
2018-02-20T13:22:54.821Z,-0.90
2018-02-20T13:25:22.331Z,-0.80
2018-02-20T13:27:49.810Z,-0.90
2018-02-20T13:30:17.308Z,-1.00
2018-02-20T13:32:44.795Z,-1.00
2018-02-20T13:35:13.114Z,-1.00
2018-02-20T13:37:41.323Z,-0.90
2018-02-20T13:40:08.813Z,-1.00
2018-02-20T13:42:36.291Z,-0.90
2018-02-20T13:45:03.790Z,-0.90
2018-02-20T13:47:31.260Z,-0.90
2018-02-20T13:49:58.832Z,-1.00
2018-02-20T13:52:27.111Z,-0.90
2018-02-20T13:54:55.372Z,-0.90
2018-02-20T13:57:22.891Z,-0.90
2018-02-20T13:59:50.355Z,-0.90
2018-02-20T14:02:17.869Z,-1.00
2018-02-20T14:04:46.103Z,-1.10
2018-02-20T14:07:13.611Z,-1.20
2018-02-20T14:09:41.879Z,-1.20
2018-02-20T14:12:10.152Z,-1.20
2018-02-20T14:14:38.397Z,-1.20
2018-02-20T14:17:05.923Z,-1.20
2018-02-20T14:19:33.410Z,-1.20
2018-02-20T14:22:00.896Z,-1.20
2018-02-20T14:24:29.179Z,-1.10
2018-02-20T14:26:57.439Z,-1.10
2018-02-20T14:29:26.459Z,-1.10
2018-02-20T14:31:54.711Z,-1.10
2018-02-20T14:34:22.239Z,-1.10
2018-02-20T14:36:49.720Z,-1.10
2018-02-20T14:39:17.222Z,-1.10
2018-02-20T14:41:44.700Z,-1.10
2018-02-20T14:44:12.195Z,-1.00
2018-02-20T14:46:39.682Z,-1.00
2018-02-20T14:49:07.966Z,-1.10
2018-02-20T14:51:36.207Z,-1.10
2018-02-20T14:54:03.710Z,-1.10
2018-02-20T14:56:31.946Z,-1.30
2018-02-20T14:59:00.073Z,-1.30
2018-02-20T15:01:27.580Z,-1.30
2018-02-20T15:03:55.086Z,-1.20
2018-02-20T15:06:22.592Z,-1.30
2018-02-20T15:08:50.103Z,-1.30
2018-02-20T15:11:18.379Z,-1.40
2018-02-20T15:13:45.901Z,-1.40
2018-02-20T15:16:13.434Z,-1.40
2018-02-20T15:18:40.907Z,-1.40
2018-02-20T15:21:08.442Z,-1.40
2018-02-20T15:23:35.919Z,-1.40
2018-02-20T15:26:03.393Z,-1.40
2018-02-20T15:28:30.900Z,-1.50
2018-02-20T15:30:58.416Z,-1.50
2018-02-20T15:33:25.944Z,-1.40
2018-02-20T15:35:53.484Z,-1.40
2018-02-20T15:38:21.005Z,-1.50
2018-02-20T15:40:49.250Z,-1.50
2018-02-20T15:43:16.803Z,-1.50
2018-02-20T15:45:44.515Z,-1.60
2018-02-20T15:48:12.762Z,-1.60
2018-02-20T15:50:40.276Z,-1.60
2018-02-20T15:53:07.826Z,-1.40
2018-02-20T15:55:35.315Z,-1.50
2018-02-20T15:58:02.811Z,-1.40
2018-02-20T16:00:30.330Z,-1.40
2018-02-20T16:02:57.803Z,-1.40
2018-02-20T16:05:25.307Z,-1.50
2018-02-20T16:07:53.593Z,-1.40
2018-02-20T16:10:21.898Z,-1.50
2018-02-20T16:12:49.403Z,-1.50
2018-02-20T16:15:17.665Z,-1.50
2018-02-20T16:17:45.183Z,-1.50
2018-02-20T16:20:12.675Z,-1.60
2018-02-20T16:22:40.174Z,-1.50
2018-02-20T16:25:08.445Z,-1.60
2018-02-20T16:27:36.753Z,-1.60
2018-02-20T16:30:04.251Z,-1.60
2018-02-20T16:32:31.800Z,-1.50
2018-02-20T16:34:59.298Z,-1.60
2018-02-20T16:37:27.572Z,-1.70
2018-02-20T16:39:55.838Z,-1.80
2018-02-20T16:42:23.334Z,-1.80
2018-02-20T16:44:50.850Z,-1.60
2018-02-20T16:47:18.351Z,-1.60
2018-02-20T16:49:45.862Z,-1.60
2018-02-20T16:52:13.374Z,-1.70
2018-02-20T16:54:40.859Z,-1.60
2018-02-20T16:57:08.363Z,-1.60
2018-02-20T16:59:36.695Z,-1.60
2018-02-20T17:02:04.171Z,-1.60
2018-02-20T17:04:31.719Z,-1.60
2018-02-20T17:06:59.199Z,-1.60
2018-02-20T17:09:26.752Z,-1.60
2018-02-20T17:11:54.242Z,-1.70
2018-02-20T17:14:22.543Z,-1.60
2018-02-20T17:16:50.067Z,-1.60
2018-02-20T17:19:17.541Z,-1.70
2018-02-20T17:21:45.834Z,-1.70
2018-02-20T17:24:14.082Z,-1.70
2018-02-20T17:26:42.329Z,-1.70
2018-02-20T17:29:09.832Z,-1.70
2018-02-20T17:31:38.084Z,-1.70
2018-02-20T17:34:05.622Z,-1.70
2018-02-20T17:36:33.133Z,-1.70
2018-02-20T17:39:00.638Z,-1.70
2018-02-20T17:41:28.165Z,-1.70
2018-02-20T17:43:55.670Z,-1.70
2018-02-20T17:46:23.206Z,-1.70
2018-02-20T17:48:50.704Z,-1.70
2018-02-20T17:51:18.210Z,-1.80
2018-02-20T17:53:45.709Z,-1.90
2018-02-20T17:56:13.295Z,-1.70
2018-02-20T17:58:40.711Z,-1.70
2018-02-20T18:01:08.211Z,-1.80
2018-02-20T18:03:36.489Z,-1.80
2018-02-20T18:06:04.734Z,-1.80
2018-02-20T18:08:32.273Z,-1.80
2018-02-20T18:10:59.783Z,-1.70
2018-02-20T18:13:28.042Z,-1.80
2018-02-20T18:15:55.555Z,-1.80
2018-02-20T18:18:23.067Z,-2.00
2018-02-20T18:20:51.342Z,-2.10
2018-02-20T18:23:18.837Z,-2.10
2018-02-20T18:25:46.332Z,-2.10
2018-02-20T18:28:13.805Z,-2.20
2018-02-20T18:30:41.311Z,-2.10
2018-02-20T18:33:08.809Z,-2.10
2018-02-20T18:35:36.327Z,-2.10
2018-02-20T18:38:03.840Z,-2.00
2018-02-20T18:40:31.363Z,-1.90
2018-02-20T18:42:58.869Z,-2.00
2018-02-20T18:45:26.387Z,-2.00
2018-02-20T18:47:53.869Z,-2.10
2018-02-20T18:50:21.362Z,-2.20
2018-02-20T18:52:49.654Z,-2.00
2018-02-20T18:55:17.168Z,-2.00
2018-02-20T18:57:44.679Z,-2.10
2018-02-20T19:00:12.219Z,-2.10
2018-02-20T19:02:40.514Z,-2.20
2018-02-20T19:05:08.014Z,-2.20
2018-02-20T19:07:35.547Z,-2.10
2018-02-20T19:10:03.046Z,-2.10
2018-02-20T19:12:30.561Z,-2.10
2018-02-20T19:14:58.092Z,-2.10
2018-02-20T19:17:26.360Z,-2.10
2018-02-20T19:19:54.636Z,-2.00
2018-02-20T19:22:22.168Z,-2.00
2018-02-20T19:24:49.662Z,-2.00
2018-02-20T19:27:17.939Z,-1.90
2018-02-20T19:29:46.210Z,-1.90
2018-02-20T19:32:13.700Z,-1.90
2018-02-20T19:34:41.210Z,-1.90
2018-02-20T19:37:08.709Z,-2.10
2018-02-20T19:39:36.183Z,-2.20
2018-02-20T19:42:03.709Z,-2.20
2018-02-20T19:44:31.971Z,-2.20
2018-02-20T19:46:59.495Z,-2.20
2018-02-20T19:49:26.986Z,-2.10
2018-02-20T19:51:54.516Z,-2.20
2018-02-20T19:54:22.028Z,-2.20
2018-02-20T19:56:50.279Z,-2.30
2018-02-20T19:59:17.779Z,-2.30
2018-02-20T20:01:45.266Z,-2.30
2018-02-20T20:04:12.808Z,-2.20
2018-02-20T20:06:40.272Z,-2.20
2018-02-20T20:09:07.784Z,-2.20
2018-02-20T20:11:35.295Z,-2.20
2018-02-20T20:14:02.792Z,-2.20
2018-02-20T20:16:30.296Z,-2.20
2018-02-20T20:18:57.799Z,-2.20
2018-02-20T20:21:25.346Z,-2.10
2018-02-20T20:23:52.831Z,-2.20
2018-02-20T20:26:20.358Z,-2.10
2018-02-20T20:28:47.870Z,-2.20
2018-02-20T20:31:16.122Z,-2.30
2018-02-20T20:33:43.622Z,-2.30
2018-02-20T20:36:11.112Z,-2.30
2018-02-20T20:38:38.626Z,-2.30
2018-02-20T20:41:06.882Z,-2.20
2018-02-20T20:43:34.393Z,-2.20
2018-02-20T20:46:01.879Z,-2.30
2018-02-20T20:48:29.441Z,-2.20
2018-02-20T20:50:56.954Z,-2.40
2018-02-20T20:53:24.455Z,-2.30
2018-02-20T20:55:51.980Z,-2.30
2018-02-20T20:58:19.466Z,-2.30
2018-02-20T21:00:47.024Z,-2.40
2018-02-20T21:03:14.543Z,-2.30
2018-02-20T21:05:42.812Z,-2.30
2018-02-20T21:08:10.321Z,-2.30
2018-02-20T21:10:37.824Z,-2.40
2018-02-20T21:13:05.360Z,-2.30
2018-02-20T21:15:34.104Z,-2.30
2018-02-20T21:18:01.585Z,-2.40
2018-02-20T21:20:29.105Z,-2.40
2018-02-20T21:22:57.394Z,-2.40
2018-02-20T21:25:24.900Z,-2.40
2018-02-20T21:27:52.441Z,-2.40
2018-02-20T21:30:19.920Z,-2.40
2018-02-20T21:32:47.435Z,-2.40
2018-02-20T21:35:14.934Z,-2.40
2018-02-20T21:37:42.454Z,-2.40
2018-02-20T21:40:09.963Z,-2.40
2018-02-20T21:42:37.468Z,-2.50
2018-02-20T21:45:04.990Z,-2.40
2018-02-20T21:47:32.467Z,-2.50
2018-02-20T21:50:00.754Z,-2.50
2018-02-20T21:52:28.239Z,-2.60
2018-02-20T21:54:55.744Z,-2.60
2018-02-20T21:57:23.251Z,-2.60
2018-02-20T21:59:50.774Z,-2.60
2018-02-20T22:02:19.033Z,-2.60
2018-02-20T22:04:46.552Z,-2.60
2018-02-20T22:07:14.018Z,-2.60
2018-02-20T22:09:41.532Z,-2.60
2018-02-20T22:12:09.824Z,-2.60
2018-02-20T22:14:37.304Z,-2.60
2018-02-20T22:17:04.780Z,-2.60
2018-02-20T22:19:32.291Z,-2.60
2018-02-20T22:22:00.522Z,-2.60
2018-02-20T22:24:28.045Z,-2.60
2018-02-20T22:26:55.563Z,-2.50
2018-02-20T22:29:23.866Z,-2.60
2018-02-20T22:31:51.369Z,-2.60
2018-02-20T22:34:18.842Z,-2.60
2018-02-20T22:36:46.362Z,-2.60
2018-02-20T22:39:13.862Z,-2.60
2018-02-20T22:41:41.374Z,-2.60
2018-02-20T22:44:08.862Z,-2.60
2018-02-20T22:46:36.340Z,-2.60
2018-02-20T22:49:03.854Z,-2.60
2018-02-20T22:51:31.366Z,-2.60
2018-02-20T22:53:58.872Z,-2.60
2018-02-20T22:56:26.343Z,-2.60
2018-02-20T22:58:53.842Z,-2.50
2018-02-20T23:01:21.355Z,-2.50
2018-02-20T23:03:48.855Z,-2.60
2018-02-20T23:06:16.343Z,-2.60
2018-02-20T23:08:44.618Z,-2.50
2018-02-20T23:11:12.852Z,-2.50
2018-02-20T23:13:40.360Z,-2.50
2018-02-20T23:16:07.876Z,-2.60
2018-02-20T23:18:35.363Z,-2.60
2018-02-20T23:21:03.644Z,-2.60
2018-02-20T23:23:31.902Z,-2.70
2018-02-20T23:25:59.427Z,-2.70
2018-02-20T23:28:26.923Z,-2.70
2018-02-20T23:30:54.433Z,-2.60
2018-02-20T23:33:21.914Z,-2.60
2018-02-20T23:35:49.440Z,-2.60
2018-02-20T23:38:16.919Z,-2.70
2018-02-20T23:40:44.427Z,-2.70
2018-02-20T23:43:12.682Z,-2.60
2018-02-20T23:45:40.171Z,-2.60
2018-02-20T23:48:08.459Z,-2.70
2018-02-20T23:50:35.958Z,-2.70
2018-02-20T23:53:03.466Z,-2.60
2018-02-20T23:55:31.715Z,-2.60
2018-02-20T23:57:59.231Z,-2.60
